T/t Christina G — ZCXO5 — position and weather

sailwx.info

Track history (hours):
 
Tides and Currents Weather Stations Pressure Air Temp Water Temp Dewpoint Dewpoint Depression Visibility Wind Speed Wind Dir Waves Ship Positions

T/t Christina G

Last reported at 2015-May-05 15:33 UTC. Time now 2015-May-05 16:17 UTC.
Position N 39°31' E 002°33'.

Length 33 m; draft 2.5 m.

MMSI: 319032100.

Date/timePositionNaut miles runAvg speedWind from/ knotsBaromVisibWave heightAir tempDewpointWater temp
2015-May-05 15:33N 39°31' E 002°33'3 2.7
2015-May-05 14:32N 39°28' E 002°32'0 0.0
2015-May-05 13:29N 39°28' E 002°32'0 0.0
2015-May-05 12:26N 39°28' E 002°32'0 0.0
2015-May-05 11:32N 39°28' E 002°32'0 0.0
2015-May-05 10:32N 39°28' E 002°32'0 0.2
2015-May-05 09:31N 39°28' E 002°31'0 0.0
2015-May-05 08:31N 39°28' E 002°31'0 0.0
2015-May-05 07:28N 39°28' E 002°31'0 0.0
2015-May-05 06:31N 39°28' E 002°31'0 0.0
2015-May-05 05:16N 39°28' E 002°31'0 0.0
2015-May-05 04:28N 39°28' E 002°31'0 0.0
2015-May-05 03:16N 39°28' E 002°31'0 0.0
2015-May-05 02:28N 39°28' E 002°31'0 0.0
2015-May-05 01:31N 39°28' E 002°31'0 0.0
2015-May-05 00:28N 39°28' E 002°31'0 0.0
2015-May-04 23:19N 39°28' E 002°31'0 0.1
2015-May-04 22:33N 39°28' E 002°32'7 7.4
2015-May-04 21:33N 39°33' E 002°39'0 0.0
2015-May-04 20:31N 39°33' E 002°39'0 0.0
2015-May-04 19:31N 39°33' E 002°39'0 0.0
2015-May-04 18:31N 39°33' E 002°39'0 0.0
2015-May-04 17:31N 39°33' E 002°39'1 0.7
2015-May-04 16:33N 39°33' E 002°38'9 9.3
2015-May-04 15:33N 39°28' E 002°28'10 1.6
2015-May-04 09:14N 39°34' E 002°18'710.4
2015-May-04 08:33N 39°29' E 002°11'1110.9
2015-May-04 07:33N 39°22' E 002°00'1110.7
2015-May-04 06:33N 39°15' E 001°50'1110.5
2015-May-04 05:33N 39°08' E 001°40'4 3.5
2015-May-04 04:20N 39°05' E 001°36'0 0.0
2015-May-04 03:32N 39°05' E 001°36'0 0.0
2015-May-04 02:32N 39°05' E 001°36'0 0.0
2015-May-04 01:32N 39°05' E 001°36'0 0.0
2015-May-04 00:20N 39°05' E 001°36'0 0.0
2015-May-03 23:29N 39°05' E 001°36'0 0.0
2015-May-03 22:32N 39°05' E 001°36'0 0.0
2015-May-03 21:29N 39°05' E 001°36'0 0.0
2015-May-03 20:32N 39°05' E 001°36'0 0.0
2015-May-03 19:32N 39°05' E 001°36'0 0.0
2015-May-03 18:26N 39°05' E 001°36'0 0.0
2015-May-03 17:32N 39°05' E 001°36'0 0.0
2015-May-03 16:32N 39°05' E 001°36'0 0.0
2015-May-03 15:08N 39°05' E 001°36'0 0.0
2015-May-03 13:32N 39°05' E 001°36'0 0.0
2015-May-03 12:20N 39°05' E 001°36'0 0.0
2015-May-03 11:26N 39°05' E 001°36'1 1.6
2015-May-03 10:33N 39°04' E 001°36'8 7.9
2015-May-03 09:33N 38°56' E 001°32'3 0.3
2015-May-02 20:20N 38°55' E 001°28'5 6.0
2015-May-02 19:33N 38°50' E 001°26'4 0.4
2015-May-02 09:19N 38°47' E 001°25'4 5.4
2015-May-02 08:33N 38°44' E 001°28'0 0.0
2015-May-02 02:32N 38°44' E 001°28'0 0.0
2015-May-01 19:14N 38°44' E 001°28'0 0.0
2015-May-01 17:05N 38°44' E 001°28'0 0.0
2015-May-01 16:33N 38°44' E 001°28'1 0.6
2015-May-01 15:27N 38°44' E 001°28'8 9.5
2015-May-01 14:33N 38°53' E 001°27'2 0.1
2015-Apr-30 20:30N 38°55' E 001°27'1 0.2
2015-Apr-30 17:33N 38°54' E 001°27'13 9.7
2015-Apr-30 16:11N 39°01' E 001°42'810.7
2015-Apr-30 15:27N 39°05' E 001°50'1010.6
2015-Apr-30 14:32N 39°11' E 002°00'1010.5
2015-Apr-30 13:33N 39°16' E 002°12'1010.4
2015-Apr-30 12:33N 39°22' E 002°23'1010.3
2015-Apr-30 11:33N 39°28' E 002°33'7 6.5
2015-Apr-30 10:33N 39°34' E 002°38'0 0.0
2015-Apr-30 09:33N 39°34' E 002°38'0 0.0
2015-Apr-30 08:33N 39°34' E 002°38'0 0.0
2015-Apr-30 07:33N 39°34' E 002°38'0 0.0
2015-Apr-30 06:33N 39°34' E 002°38'0 0.0
2015-Apr-30 05:33N 39°34' E 002°38'0 0.0
2015-Apr-30 04:33N 39°34' E 002°38'0 0.0
2015-Apr-30 03:30N 39°34' E 002°38'0 0.0
2015-Apr-30 02:33N 39°34' E 002°38'0 0.0
2015-Apr-30 01:33N 39°34' E 002°38'0 0.0
2015-Apr-30 00:33N 39°34' E 002°38'0 0.0
2015-Apr-29 23:33N 39°34' E 002°38'0 0.0
2015-Apr-29 22:33N 39°34' E 002°38'0 0.0
2015-Apr-29 21:33N 39°34' E 002°38'0 0.0
2015-Apr-29 20:33N 39°34' E 002°38'0 0.0
2015-Apr-29 19:33N 39°34' E 002°38'0 0.0
2015-Apr-29 18:33N 39°34' E 002°38'0 0.0
2015-Apr-29 17:33N 39°34' E 002°38'0 0.0
2015-Apr-29 16:33N 39°34' E 002°38'0 0.0
2015-Apr-29 15:33N 39°34' E 002°38'0 0.0
2015-Apr-29 14:33N 39°34' E 002°38'0 0.0
2015-Apr-29 13:33N 39°34' E 002°38'0 0.0
2015-Apr-29 12:33N 39°34' E 002°38'0 0.0
2015-Apr-29 11:33N 39°34' E 002°38'0 0.0
2015-Apr-29 10:33N 39°34' E 002°38'0 0.0
2015-Apr-29 09:33N 39°34' E 002°38'0 0.0
2015-Apr-29 08:33N 39°34' E 002°38'0 0.0
2015-Apr-29 07:33N 39°34' E 002°38'0 0.0
2015-Apr-29 06:33N 39°34' E 002°38'0 0.0
2015-Apr-29 05:33N 39°34' E 002°38'0 0.0
2015-Apr-29 04:33N 39°34' E 002°38'0 0.0
2015-Apr-29 03:33N 39°34' E 002°38'0 0.0
2015-Apr-29 02:33N 39°34' E 002°38'0 0.0
2015-Apr-29 01:33N 39°34' E 002°38'0 0.0
2015-Apr-29 00:30N 39°34' E 002°38'0 0.0
2015-Apr-28 23:33N 39°34' E 002°38'0 0.0
2015-Apr-28 22:33N 39°34' E 002°38'0 0.0
2015-Apr-28 21:33N 39°34' E 002°38'0 0.0
2015-Apr-28 20:33N 39°34' E 002°38'0 0.0
2015-Apr-28 19:33N 39°34' E 002°38'0 0.0
2015-Apr-28 18:33N 39°34' E 002°38'0 0.0
2015-Apr-28 17:30N 39°34' E 002°38'0 0.0
2015-Apr-28 16:33N 39°34' E 002°38'0 0.0
2015-Apr-28 15:33N 39°34' E 002°38'0 0.1
2015-Apr-28 14:33N 39°34' E 002°38'2 2.4
2015-Apr-28 13:33N 39°32' E 002°41'2 1.8
2015-Apr-28 12:33N 39°33' E 002°39'1 0.8
2015-Apr-28 11:32N 39°34' E 002°38'0 0.0
2015-Apr-28 10:32N 39°34' E 002°38'0 0.0
2015-Apr-28 09:32N 39°34' E 002°38'0 0.0
2015-Apr-28 08:32N 39°34' E 002°38'0 0.0
2015-Apr-28 07:32N 39°34' E 002°38'0 0.0
2015-Apr-28 06:32N 39°34' E 002°38'0 0.0
2015-Apr-28 05:29N 39°34' E 002°38'0 0.0
2015-Apr-28 04:32N 39°34' E 002°38'0 0.0
2015-Apr-28 03:29N 39°34' E 002°38'0 0.0
2015-Apr-28 02:32N 39°34' E 002°38'0 0.0
2015-Apr-28 01:32N 39°34' E 002°38'0 0.0
2015-Apr-28 00:32N 39°34' E 002°38'0 0.0
2015-Apr-27 23:32N 39°34' E 002°38'0 0.0
2015-Apr-27 22:32N 39°34' E 002°38'0 0.0
2015-Apr-27 21:32N 39°34' E 002°38'0 0.0
2015-Apr-27 20:32N 39°34' E 002°38'0 0.0
2015-Apr-27 19:32N 39°34' E 002°38'0 0.0
2015-Apr-27 18:32N 39°34' E 002°38'0 0.0
2015-Apr-27 17:32N 39°34' E 002°38'0 0.0
2015-Apr-27 16:32N 39°34' E 002°38'0 0.0
2015-Apr-27 15:32N 39°34' E 002°38'0 0.0
2015-Apr-27 14:32N 39°34' E 002°38'0 0.0
2015-Apr-27 13:32N 39°34' E 002°38'0 0.0
2015-Apr-27 12:32N 39°34' E 002°38'  
Track history (hours):
 
Tides and Currents Weather Stations Pressure Air Temp Water Temp Dewpoint Dewpoint Depression Visibility Wind Speed Wind Dir Waves Ship Positions

T/t Christina G

Last reported at 2015-May-05 15:33 UTC. Time now 2015-May-05 16:17 UTC.
Position N 39°31' E 002°33'.

Length 33 m; draft 2.5 m.

MMSI: 319032100.

Date/timePositionNaut miles runAvg speedWind from/ knotsBaromVisibWave heightAir tempDewpointWater temp
2015-May-05 15:33N 39°31' E 002°33'3 2.7
2015-May-05 14:32N 39°28' E 002°32'0 0.0
2015-May-05 13:29N 39°28' E 002°32'0 0.0
2015-May-05 12:26N 39°28' E 002°32'0 0.0
2015-May-05 11:32N 39°28' E 002°32'0 0.0
2015-May-05 10:32N 39°28' E 002°32'0 0.2
2015-May-05 09:31N 39°28' E 002°31'0 0.0
2015-May-05 08:31N 39°28' E 002°31'0 0.0
2015-May-05 07:28N 39°28' E 002°31'0 0.0
2015-May-05 06:31N 39°28' E 002°31'0 0.0
2015-May-05 05:16N 39°28' E 002°31'0 0.0
2015-May-05 04:28N 39°28' E 002°31'0 0.0
2015-May-05 03:16N 39°28' E 002°31'0 0.0
2015-May-05 02:28N 39°28' E 002°31'0 0.0
2015-May-05 01:31N 39°28' E 002°31'0 0.0
2015-May-05 00:28N 39°28' E 002°31'0 0.0
2015-May-04 23:19N 39°28' E 002°31'0 0.1
2015-May-04 22:33N 39°28' E 002°32'7 7.4
2015-May-04 21:33N 39°33' E 002°39'0 0.0
2015-May-04 20:31N 39°33' E 002°39'0 0.0
2015-May-04 19:31N 39°33' E 002°39'0 0.0
2015-May-04 18:31N 39°33' E 002°39'0 0.0
2015-May-04 17:31N 39°33' E 002°39'1 0.7
2015-May-04 16:33N 39°33' E 002°38'9 9.3
2015-May-04 15:33N 39°28' E 002°28'10 1.6
2015-May-04 09:14N 39°34' E 002°18'710.4
2015-May-04 08:33N 39°29' E 002°11'1110.9
2015-May-04 07:33N 39°22' E 002°00'1110.7
2015-May-04 06:33N 39°15' E 001°50'1110.5
2015-May-04 05:33N 39°08' E 001°40'4 3.5
2015-May-04 04:20N 39°05' E 001°36'0 0.0
2015-May-04 03:32N 39°05' E 001°36'0 0.0
2015-May-04 02:32N 39°05' E 001°36'0 0.0
2015-May-04 01:32N 39°05' E 001°36'0 0.0
2015-May-04 00:20N 39°05' E 001°36'0 0.0
2015-May-03 23:29N 39°05' E 001°36'0 0.0
2015-May-03 22:32N 39°05' E 001°36'0 0.0
2015-May-03 21:29N 39°05' E 001°36'0 0.0
2015-May-03 20:32N 39°05' E 001°36'0 0.0
2015-May-03 19:32N 39°05' E 001°36'0 0.0
2015-May-03 18:26N 39°05' E 001°36'0 0.0
2015-May-03 17:32N 39°05' E 001°36'0 0.0
2015-May-03 16:32N 39°05' E 001°36'0 0.0
2015-May-03 15:08N 39°05' E 001°36'0 0.0
2015-May-03 13:32N 39°05' E 001°36'0 0.0
2015-May-03 12:20N 39°05' E 001°36'0 0.0
2015-May-03 11:26N 39°05' E 001°36'1 1.6
2015-May-03 10:33N 39°04' E 001°36'8 7.9
2015-May-03 09:33N 38°56' E 001°32'3 0.3
2015-May-02 20:20N 38°55' E 001°28'5 6.0
2015-May-02 19:33N 38°50' E 001°26'4 0.4
2015-May-02 09:19N 38°47' E 001°25'4 5.4
2015-May-02 08:33N 38°44' E 001°28'0 0.0
2015-May-02 02:32N 38°44' E 001°28'0 0.0
2015-May-01 19:14N 38°44' E 001°28'0 0.0
2015-May-01 17:05N 38°44' E 001°28'0 0.0
2015-May-01 16:33N 38°44' E 001°28'1 0.6
2015-May-01 15:27N 38°44' E 001°28'8 9.5
2015-May-01 14:33N 38°53' E 001°27'2 0.1
2015-Apr-30 20:30N 38°55' E 001°27'1 0.2
2015-Apr-30 17:33N 38°54' E 001°27'13 9.7
2015-Apr-30 16:11N 39°01' E 001°42'810.7
2015-Apr-30 15:27N 39°05' E 001°50'1010.6
2015-Apr-30 14:32N 39°11' E 002°00'1010.5
2015-Apr-30 13:33N 39°16' E 002°12'1010.4
2015-Apr-30 12:33N 39°22' E 002°23'1010.3
2015-Apr-30 11:33N 39°28' E 002°33'7 6.5
2015-Apr-30 10:33N 39°34' E 002°38'0 0.0
2015-Apr-30 09:33N 39°34' E 002°38'0 0.0
2015-Apr-30 08:33N 39°34' E 002°38'0 0.0
2015-Apr-30 07:33N 39°34' E 002°38'0 0.0
2015-Apr-30 06:33N 39°34' E 002°38'0 0.0
2015-Apr-30 05:33N 39°34' E 002°38'0 0.0
2015-Apr-30 04:33N 39°34' E 002°38'0 0.0
2015-Apr-30 03:30N 39°34' E 002°38'0 0.0
2015-Apr-30 02:33N 39°34' E 002°38'0 0.0
2015-Apr-30 01:33N 39°34' E 002°38'0 0.0
2015-Apr-30 00:33N 39°34' E 002°38'0 0.0
2015-Apr-29 23:33N 39°34' E 002°38'0 0.0
2015-Apr-29 22:33N 39°34' E 002°38'0 0.0
2015-Apr-29 21:33N 39°34' E 002°38'0 0.0
2015-Apr-29 20:33N 39°34' E 002°38'0 0.0
2015-Apr-29 19:33N 39°34' E 002°38'0 0.0
2015-Apr-29 18:33N 39°34' E 002°38'0 0.0
2015-Apr-29 17:33N 39°34' E 002°38'0 0.0
2015-Apr-29 16:33N 39°34' E 002°38'0 0.0
2015-Apr-29 15:33N 39°34' E 002°38'0 0.0
2015-Apr-29 14:33N 39°34' E 002°38'0 0.0
2015-Apr-29 13:33N 39°34' E 002°38'0 0.0
2015-Apr-29 12:33N 39°34' E 002°38'0 0.0
2015-Apr-29 11:33N 39°34' E 002°38'0 0.0
2015-Apr-29 10:33N 39°34' E 002°38'0 0.0
2015-Apr-29 09:33N 39°34' E 002°38'0 0.0
2015-Apr-29 08:33N 39°34' E 002°38'0 0.0
2015-Apr-29 07:33N 39°34' E 002°38'0 0.0
2015-Apr-29 06:33N 39°34' E 002°38'0 0.0
2015-Apr-29 05:33N 39°34' E 002°38'0 0.0
2015-Apr-29 04:33N 39°34' E 002°38'0 0.0
2015-Apr-29 03:33N 39°34' E 002°38'0 0.0
2015-Apr-29 02:33N 39°34' E 002°38'0 0.0
2015-Apr-29 01:33N 39°34' E 002°38'0 0.0
2015-Apr-29 00:30N 39°34' E 002°38'0 0.0
2015-Apr-28 23:33N 39°34' E 002°38'0 0.0
2015-Apr-28 22:33N 39°34' E 002°38'0 0.0
2015-Apr-28 21:33N 39°34' E 002°38'0 0.0
2015-Apr-28 20:33N 39°34' E 002°38'0 0.0
2015-Apr-28 19:33N 39°34' E 002°38'0 0.0
2015-Apr-28 18:33N 39°34' E 002°38'0 0.0
2015-Apr-28 17:30N 39°34' E 002°38'0 0.0
2015-Apr-28 16:33N 39°34' E 002°38'0 0.0
2015-Apr-28 15:33N 39°34' E 002°38'0 0.1
2015-Apr-28 14:33N 39°34' E 002°38'2 2.4
2015-Apr-28 13:33N 39°32' E 002°41'2 1.8
2015-Apr-28 12:33N 39°33' E 002°39'1 0.8
2015-Apr-28 11:32N 39°34' E 002°38'0 0.0
2015-Apr-28 10:32N 39°34' E 002°38'0 0.0
2015-Apr-28 09:32N 39°34' E 002°38'0 0.0
2015-Apr-28 08:32N 39°34' E 002°38'0 0.0
2015-Apr-28 07:32N 39°34' E 002°38'0 0.0
2015-Apr-28 06:32N 39°34' E 002°38'0 0.0
2015-Apr-28 05:29N 39°34' E 002°38'0 0.0
2015-Apr-28 04:32N 39°34' E 002°38'0 0.0
2015-Apr-28 03:29N 39°34' E 002°38'0 0.0
2015-Apr-28 02:32N 39°34' E 002°38'0 0.0
2015-Apr-28 01:32N 39°34' E 002°38'0 0.0
2015-Apr-28 00:32N 39°34' E 002°38'0 0.0
2015-Apr-27 23:32N 39°34' E 002°38'0 0.0
2015-Apr-27 22:32N 39°34' E 002°38'0 0.0
2015-Apr-27 21:32N 39°34' E 002°38'0 0.0
2015-Apr-27 20:32N 39°34' E 002°38'0 0.0
2015-Apr-27 19:32N 39°34' E 002°38'0 0.0
2015-Apr-27 18:32N 39°34' E 002°38'0 0.0
2015-Apr-27 17:32N 39°34' E 002°38'0 0.0
2015-Apr-27 16:32N 39°34' E 002°38'0 0.0
2015-Apr-27 15:32N 39°34' E 002°38'0 0.0
2015-Apr-27 14:32N 39°34' E 002°38'0 0.0
2015-Apr-27 13:32N 39°34' E 002°38'0 0.0
2015-Apr-27 12:32N 39°34' E 002°38'  

Dump ship's entire track history